createdAt,value
2023-04-10T00:01:04.000Z,14.80
2023-04-10T00:16:08.944Z,15.40
2023-04-10T00:31:13.106Z,14.90
2023-04-10T00:46:17.701Z,14.20
2023-04-10T01:01:22.133Z,14.00
2023-04-10T01:16:34.348Z,15.20
2023-04-10T01:31:50.913Z,13.90
2023-04-10T01:46:58.115Z,13.70
2023-04-10T02:02:16.112Z,9.70
2023-04-10T02:17:29.433Z,11.70
2023-04-10T02:32:34.014Z,14.40
2023-04-10T02:47:52.627Z,14.50
2023-04-10T03:18:28.413Z,10.60
2023-04-10T03:49:04.603Z,12.30
2023-04-10T04:04:08.972Z,11.90
2023-04-10T04:19:27.041Z,12.70
2023-04-10T04:34:31.116Z,14.70
2023-04-10T04:49:36.045Z,13.30
2023-04-10T05:19:58.540Z,11.30
2023-04-10T05:35:02.740Z,13.10
2023-04-10T05:50:08.236Z,12.60
2023-04-10T06:05:12.446Z,10.60
2023-04-10T06:20:17.077Z,11.30
2023-04-10T06:35:21.762Z,10.80
2023-04-10T06:50:26.609Z,10.70
2023-04-10T07:05:30.896Z,11.80
2023-04-10T07:20:36.493Z,11.00
2023-04-10T07:50:59.686Z,13.90
2023-04-10T08:06:04.371Z,16.80
2023-04-10T08:36:40.584Z,16.70
2023-04-10T08:51:57.271Z,17.60
2023-04-10T09:07:01.757Z,18.10
2023-04-10T09:22:06.939Z,15.20
2023-04-10T09:37:11.275Z,18.80
2023-04-10T09:52:23.418Z,20.10
2023-04-10T10:07:42.121Z,16.20
2023-04-10T10:22:49.022Z,18.90
2023-04-10T10:37:56.008Z,18.10
2023-04-10T10:53:02.759Z,16.90
2023-04-10T11:08:06.913Z,17.30
2023-04-10T11:23:13.504Z,18.00
2023-04-10T11:38:18.779Z,19.50
2023-04-10T11:53:23.517Z,14.30
2023-04-10T12:08:51.331Z,17.60
2023-04-10T12:39:27.213Z,16.10
2023-04-10T12:54:37.626Z,8.90
2023-04-10T13:09:41.977Z,7.50
2023-04-10T13:24:46.916Z,8.80
2023-04-10T13:40:06.172Z,10.50
2023-04-10T13:55:11.638Z,9.10
2023-04-10T14:10:16.227Z,7.90
2023-04-10T14:25:21.374Z,7.60
2023-04-10T14:40:26.188Z,6.20
2023-04-10T14:55:44.987Z,7.70
2023-04-10T15:26:17.084Z,7.90
2023-04-10T15:41:23.113Z,8.20
2023-04-10T16:12:13.920Z,7.90
2023-04-10T16:27:18.535Z,8.80
2023-04-10T16:42:23.016Z,8.30
2023-04-10T16:57:29.830Z,9.70
2023-04-10T17:12:34.268Z,9.10
2023-04-10T17:43:23.733Z,8.40
2023-04-10T17:58:28.079Z,12.60
2023-04-10T18:13:47.819Z,14.60
2023-04-10T18:28:52.297Z,15.40
2023-04-10T18:44:04.736Z,14.40
2023-04-10T19:14:28.625Z,22.40
2023-04-10T19:29:33.417Z,20.50
2023-04-10T19:44:38.138Z,16.00
2023-04-10T19:59:43.411Z,12.50
2023-04-10T20:14:47.729Z,16.90
2023-04-10T20:29:52.427Z,16.20
2023-04-10T20:44:57.076Z,15.30
2023-04-10T21:00:02.079Z,14.80
2023-04-10T21:15:07.425Z,18.30
2023-04-10T21:30:12.439Z,18.30
2023-04-10T21:45:17.418Z,18.00
2023-04-10T22:00:22.985Z,14.90
2023-04-10T22:15:28.209Z,16.90
2023-04-10T22:45:53.584Z,18.50
2023-04-10T23:16:18.421Z,19.80
2023-04-10T23:31:22.766Z,21.10
